sensor_id;sensor_type;location;lat;lon;timestamp;pressure;altitude;pressure_sealevel;temperature;humidity
10732;BME280;5417;42.686;23.244;2023-07-28T00:02:15;94327.47;;;18.84;nan
10732;BME280;5417;42.686;23.244;2023-07-28T00:04:43;94327.56;;;18.90;nan
10732;BME280;5417;42.686;23.244;2023-07-28T00:07:10;94356.09;;;19.10;nan
10732;BME280;5417;42.686;23.244;2023-07-28T00:09:38;94357.25;;;19.07;nan
10732;BME280;5417;42.686;23.244;2023-07-28T00:12:08;94342.78;;;19.03;nan
10732;BME280;5417;42.686;23.244;2023-07-28T00:14:35;94351.47;;;19.12;nan
10732;BME280;5417;42.686;23.244;2023-07-28T00:17:04;94357.25;;;19.07;nan
10732;BME280;5417;42.686;23.244;2023-07-28T00:19:31;94346.06;;;19.05;nan
10732;BME280;5417;42.686;23.244;2023-07-28T00:22:00;94342.53;;;19.13;nan
10732;BME280;5417;42.686;23.244;2023-07-28T00:24:27;94345.34;;;19.11;nan
10732;BME280;5417;42.686;23.244;2023-07-28T00:26:54;94343.63;;;19.04;nan
10732;BME280;5417;42.686;23.244;2023-07-28T00:29:21;94317.31;;;18.96;nan
10732;BME280;5417;42.686;23.244;2023-07-28T00:31:48;94334.34;;;19.08;nan
10732;BME280;5417;42.686;23.244;2023-07-28T00:34:15;94331.41;;;19.03;nan
10732;BME280;5417;42.686;23.244;2023-07-28T00:36:42;94340.63;;;19.07;nan
10732;BME280;5417;42.686;23.244;2023-07-28T00:39:10;94346.25;;;19.04;nan
10732;BME280;5417;42.686;23.244;2023-07-28T00:41:37;94334.47;;;18.91;nan
10732;BME280;5417;42.686;23.244;2023-07-28T00:44:04;94345.31;;;18.97;nan
10732;BME280;5417;42.686;23.244;2023-07-28T00:46:31;94346.03;;;18.90;nan
10732;BME280;5417;42.686;23.244;2023-07-28T00:48:58;94322.56;;;18.73;nan
10732;BME280;5417;42.686;23.244;2023-07-28T00:51:27;94336.59;;;18.73;nan
10732;BME280;5417;42.686;23.244;2023-07-28T00:53:54;94339.28;;;18.65;nan
10732;BME280;5417;42.686;23.244;2023-07-28T00:56:22;94334.84;;;18.57;nan
10732;BME280;5417;42.686;23.244;2023-07-28T00:58:54;94344.91;;;18.62;nan
10732;BME280;5417;42.686;23.244;2023-07-28T01:01:23;94328.56;;;18.58;nan
10732;BME280;5417;42.686;23.244;2023-07-28T01:03:52;94320.72;;;18.50;nan
10732;BME280;5417;42.686;23.244;2023-07-28T01:06:26;94331.31;;;18.42;nan
10732;BME280;5417;42.686;23.244;2023-07-28T01:08:59;94346.44;;;18.48;nan
10732;BME280;5417;42.686;23.244;2023-07-28T01:11:30;94352.09;;;18.37;nan
10732;BME280;5417;42.686;23.244;2023-07-28T01:13:58;94357.38;;;18.37;nan
10732;BME280;5417;42.686;23.244;2023-07-28T01:16:25;94348.41;;;18.23;nan
10732;BME280;5417;42.686;23.244;2023-07-28T01:18:52;94352.69;;;18.16;nan
10732;BME280;5417;42.686;23.244;2023-07-28T01:21:21;94352.50;;;18.18;nan
10732;BME280;5417;42.686;23.244;2023-07-28T01:24:12;94347.88;;;18.28;nan
10732;BME280;5417;42.686;23.244;2023-07-28T01:26:47;94355.78;;;18.20;nan
10732;BME280;5417;42.686;23.244;2023-07-28T01:29:15;94346.69;;;18.00;nan
10732;BME280;5417;42.686;23.244;2023-07-28T01:31:45;94337.38;;;17.81;nan
10732;BME280;5417;42.686;23.244;2023-07-28T01:34:13;94332.47;;;17.53;nan
10732;BME280;5417;42.686;23.244;2023-07-28T01:36:40;94347.63;;;17.51;nan
10732;BME280;5417;42.686;23.244;2023-07-28T01:39:09;94323.00;;;17.28;nan
10732;BME280;5417;42.686;23.244;2023-07-28T01:41:36;94349.31;;;17.28;nan
10732;BME280;5417;42.686;23.244;2023-07-28T01:44:12;94353.09;;;17.25;nan
10732;BME280;5417;42.686;23.244;2023-07-28T01:46:42;94357.69;;;17.15;nan
10732;BME280;5417;42.686;23.244;2023-07-28T01:49:09;94355.22;;;17.06;nan
10732;BME280;5417;42.686;23.244;2023-07-28T01:51:37;94353.41;;;17.06;nan
10732;BME280;5417;42.686;23.244;2023-07-28T01:54:10;94355.88;;;17.08;nan
10732;BME280;5417;42.686;23.244;2023-07-28T01:56:42;94355.72;;;17.09;nan
10732;BME280;5417;42.686;23.244;2023-07-28T01:59:11;94334.53;;;17.02;nan
10732;BME280;5417;42.686;23.244;2023-07-28T02:01:39;94355.88;;;17.16;nan
10732;BME280;5417;42.686;23.244;2023-07-28T02:04:06;94359.03;;;17.19;nan
10732;BME280;5417;42.686;23.244;2023-07-28T02:06:33;94360.00;;;17.18;nan
10732;BME280;5417;42.686;23.244;2023-07-28T02:09:02;94349.13;;;17.13;nan
10732;BME280;5417;42.686;23.244;2023-07-28T02:11:29;94354.06;;;17.16;nan
10732;BME280;5417;42.686;23.244;2023-07-28T02:13:56;94335.16;;;17.13;nan
10732;BME280;5417;42.686;23.244;2023-07-28T02:16:27;94356.88;;;17.23;nan
10732;BME280;5417;42.686;23.244;2023-07-28T02:18:59;94342.06;;;17.14;nan
10732;BME280;5417;42.686;23.244;2023-07-28T02:21:26;94344.88;;;17.12;nan
10732;BME280;5417;42.686;23.244;2023-07-28T02:23:55;94361.66;;;17.19;nan
10732;BME280;5417;42.686;23.244;2023-07-28T02:26:22;94362.78;;;17.17;nan
10732;BME280;5417;42.686;23.244;2023-07-28T02:28:49;94354.06;;;17.16;nan
10732;BME280;5417;42.686;23.244;2023-07-28T02:31:20;94364.94;;;17.21;nan
10732;BME280;5417;42.686;23.244;2023-07-28T02:33:48;94343.53;;;17.16;nan
10732;BME280;5417;42.686;23.244;2023-07-28T02:36:17;94361.97;;;17.24;nan
10732;BME280;5417;42.686;23.244;2023-07-28T02:38:44;94363.94;;;17.22;nan
10732;BME280;5417;42.686;23.244;2023-07-28T02:41:13;94354.88;;;17.17;nan
10732;BME280;5417;42.686;23.244;2023-07-28T02:43:40;94363.47;;;17.19;nan
10732;BME280;5417;42.686;23.244;2023-07-28T02:46:09;94365.41;;;17.17;nan
10732;BME280;5417;42.686;23.244;2023-07-28T02:48:36;94361.63;;;17.11;nan
10732;BME280;5417;42.686;23.244;2023-07-28T02:51:04;94360.47;;;17.14;nan
10732;BME280;5417;42.686;23.244;2023-07-28T02:53:31;94358.19;;;17.11;nan
10732;BME280;5417;42.686;23.244;2023-07-28T02:55:58;94357.34;;;17.10;nan
10732;BME280;5417;42.686;23.244;2023-07-28T02:58:28;94360.81;;;17.11;nan
10732;BME280;5417;42.686;23.244;2023-07-28T03:00:59;94360.97;;;17.09;nan
10732;BME280;5417;42.686;23.244;2023-07-28T03:03:26;94353.41;;;17.06;nan
10732;BME280;5417;42.686;23.244;2023-07-28T03:05:53;94369.84;;;17.08;nan
10732;BME280;5417;42.686;23.244;2023-07-28T03:08:23;94358.03;;;17.04;nan
10732;BME280;5417;42.686;23.244;2023-07-28T03:10:49;94349.97;;;16.97;nan
10732;BME280;5417;42.686;23.244;2023-07-28T03:13:17;94366.56;;;17.06;nan
10732;BME280;5417;42.686;23.244;2023-07-28T03:15:43;94367.56;;;17.05;nan
10732;BME280;5417;42.686;23.244;2023-07-28T03:18:10;94368.53;;;17.04;nan
10732;BME280;5417;42.686;23.244;2023-07-28T03:20:37;94365.59;;;16.99;nan
10732;BME280;5417;42.686;23.244;2023-07-28T03:23:07;94372.31;;;17.01;nan
10732;BME280;5417;42.686;23.244;2023-07-28T03:25:35;94371.00;;;16.97;nan
10732;BME280;5417;42.686;23.244;2023-07-28T03:28:02;94383.34;;;16.97;nan
10732;BME280;5417;42.686;23.244;2023-07-28T03:30:29;94378.25;;;16.95;nan
10732;BME280;5417;42.686;23.244;2023-07-28T03:32:57;94381.34;;;16.99;nan
10732;BME280;5417;42.686;23.244;2023-07-28T03:35:23;94381.84;;;17.02;nan
10732;BME280;5417;42.686;23.244;2023-07-28T03:37:50;94382.34;;;17.06;nan
10732;BME280;5417;42.686;23.244;2023-07-28T03:40:17;94377.75;;;17.00;nan
10732;BME280;5417;42.686;23.244;2023-07-28T03:42:48;94382.19;;;17.08;nan
10732;BME280;5417;42.686;23.244;2023-07-28T03:45:15;94388.25;;;17.08;nan
10732;BME280;5417;42.686;23.244;2023-07-28T03:47:43;94376.91;;;16.99;nan
10732;BME280;5417;42.686;23.244;2023-07-28T03:50:10;94381.19;;;17.00;nan
10732;BME280;5417;42.686;23.244;2023-07-28T03:52:37;94380.69;;;17.05;nan
10732;BME280;5417;42.686;23.244;2023-07-28T03:55:04;94377.09;;;17.06;nan
10732;BME280;5417;42.686;23.244;2023-07-28T03:57:31;94382.50;;;17.13;nan
10732;BME280;5417;42.686;23.244;2023-07-28T03:59:59;94392.56;;;17.17;nan
10732;BME280;5417;42.686;23.244;2023-07-28T04:02:26;94392.41;;;17.19;nan
10732;BME280;5417;42.686;23.244;2023-07-28T04:04:53;94379.91;;;17.21;nan
10732;BME280;5417;42.686;23.244;2023-07-28T04:07:21;94377.59;;;17.18;nan
10732;BME280;5417;42.686;23.244;2023-07-28T04:09:48;94380.22;;;17.26;nan
10732;BME280;5417;42.686;23.244;2023-07-28T04:12:15;94391.41;;;17.28;nan
10732;BME280;5417;42.686;23.244;2023-07-28T04:14:42;94390.41;;;17.29;nan
10732;BME280;5417;42.686;23.244;2023-07-28T04:17:10;94392.72;;;17.32;nan
10732;BME280;5417;42.686;23.244;2023-07-28T04:19:38;94387.44;;;17.32;nan
10732;BME280;5417;42.686;23.244;2023-07-28T04:22:05;94396.31;;;17.39;nan
10732;BME280;5417;42.686;23.244;2023-07-28T04:24:35;94384.63;;;17.42;nan
10732;BME280;5417;42.686;23.244;2023-07-28T04:27:02;94399.09;;;17.54;nan
10732;BME280;5417;42.686;23.244;2023-07-28T04:29:28;94400.72;;;17.63;nan
10732;BME280;5417;42.686;23.244;2023-07-28T04:31:55;94395.44;;;17.63;nan
10732;BME280;5417;42.686;23.244;2023-07-28T04:34:24;94392.47;;;17.66;nan
10732;BME280;5417;42.686;23.244;2023-07-28T04:36:51;94388.25;;;17.73;nan
10732;BME280;5417;42.686;23.244;2023-07-28T04:39:18;94386.09;;;17.77;nan
10732;BME280;5417;42.686;23.244;2023-07-28T04:41:45;94387.22;;;17.82;nan
10732;BME280;5417;42.686;23.244;2023-07-28T04:44:12;94389.19;;;17.88;nan
10732;BME280;5417;42.686;23.244;2023-07-28T04:46:39;94396.22;;;18.04;nan
10732;BME280;5417;42.686;23.244;2023-07-28T04:49:06;94374.19;;;17.97;nan
10732;BME280;5417;42.686;23.244;2023-07-28T04:51:34;94388.41;;;18.27;nan
10732;BME280;5417;42.686;23.244;2023-07-28T04:54:01;94389.94;;;18.83;nan
10732;BME280;5417;42.686;23.244;2023-07-28T04:56:28;94392.50;;;20.04;nan
10732;BME280;5417;42.686;23.244;2023-07-28T04:58:55;94363.63;;;21.26;nan
10732;BME280;5417;42.686;23.244;2023-07-28T05:01:25;94363.91;;;22.69;nan
10732;BME280;5417;42.686;23.244;2023-07-28T05:03:52;94373.91;;;23.94;nan
10732;BME280;5417;42.686;23.244;2023-07-28T05:06:19;94380.31;;;25.02;nan
10732;BME280;5417;42.686;23.244;2023-07-28T05:08:48;94366.31;;;25.95;nan
10732;BME280;5417;42.686;23.244;2023-07-28T05:11:15;94369.06;;;26.68;nan
10732;BME280;5417;42.686;23.244;2023-07-28T05:13:42;94358.16;;;27.18;nan
10732;BME280;5417;42.686;23.244;2023-07-28T05:16:09;94376.09;;;27.71;nan
10732;BME280;5417;42.686;23.244;2023-07-28T05:18:36;94362.59;;;27.89;nan
10732;BME280;5417;42.686;23.244;2023-07-28T05:21:03;94374.00;;;27.84;nan
10732;BME280;5417;42.686;23.244;2023-07-28T05:23:30;94363.31;;;27.84;nan
10732;BME280;5417;42.686;23.244;2023-07-28T05:25:58;94368.06;;;28.06;nan
10732;BME280;5417;42.686;23.244;2023-07-28T05:28:25;94360.28;;;28.04;nan
10732;BME280;5417;42.686;23.244;2023-07-28T05:30:52;94355.84;;;27.98;nan
10732;BME280;5417;42.686;23.244;2023-07-28T05:33:19;94369.59;;;27.90;nan
10732;BME280;5417;42.686;23.244;2023-07-28T05:35:46;94368.66;;;27.73;nan
10732;BME280;5417;42.686;23.244;2023-07-28T05:38:13;94371.44;;;27.36;nan
10732;BME280;5417;42.686;23.244;2023-07-28T05:40:40;94361.22;;;27.03;nan
10732;BME280;5417;42.686;23.244;2023-07-28T05:43:08;94374.41;;;26.68;nan
10732;BME280;5417;42.686;23.244;2023-07-28T05:45:35;94364.84;;;26.42;nan
10732;BME280;5417;42.686;23.244;2023-07-28T05:48:02;94354.94;;;26.24;nan
10732;BME280;5417;42.686;23.244;2023-07-28T05:50:29;94350.78;;;26.10;nan
10732;BME280;5417;42.686;23.244;2023-07-28T05:52:57;94354.16;;;25.99;nan
10732;BME280;5417;42.686;23.244;2023-07-28T05:55:29;94359.41;;;25.87;nan
10732;BME280;5417;42.686;23.244;2023-07-28T05:57:56;94338.09;;;25.62;nan
10732;BME280;5417;42.686;23.244;2023-07-28T06:00:25;94343.03;;;25.59;nan
10732;BME280;5417;42.686;23.244;2023-07-28T06:02:52;94347.34;;;25.60;nan
10732;BME280;5417;42.686;23.244;2023-07-28T06:05:19;94333.78;;;25.36;nan
10732;BME280;5417;42.686;23.244;2023-07-28T06:07:46;94340.84;;;25.49;nan
10732;BME280;5417;42.686;23.244;2023-07-28T06:10:13;94337.41;;;25.42;nan
10732;BME280;5417;42.686;23.244;2023-07-28T06:12:40;94341.94;;;25.41;nan
10732;BME280;5417;42.686;23.244;2023-07-28T06:15:08;94348.00;;;25.24;nan
10732;BME280;5417;42.686;23.244;2023-07-28T06:17:37;94340.34;;;25.09;nan
10732;BME280;5417;42.686;23.244;2023-07-28T06:20:05;94354.19;;;25.17;nan
10732;BME280;5417;42.686;23.244;2023-07-28T06:22:32;94352.09;;;25.26;nan
10732;BME280;5417;42.686;23.244;2023-07-28T06:24:58;94352.19;;;25.38;nan
10732;BME280;5417;42.686;23.244;2023-07-28T06:27:25;94350.28;;;25.52;nan
10732;BME280;5417;42.686;23.244;2023-07-28T06:29:53;94341.97;;;25.35;nan
10732;BME280;5417;42.686;23.244;2023-07-28T06:32:21;94347.03;;;25.18;nan
10732;BME280;5417;42.686;23.244;2023-07-28T06:34:50;94339.59;;;25.27;nan
10732;BME280;5417;42.686;23.244;2023-07-28T06:37:18;94335.78;;;25.41;nan
10732;BME280;5417;42.686;23.244;2023-07-28T06:39:45;94344.88;;;25.58;nan
10732;BME280;5417;42.686;23.244;2023-07-28T06:42:12;94318.66;;;25.30;nan
10732;BME280;5417;42.686;23.244;2023-07-28T06:44:38;94334.31;;;25.45;nan
10732;BME280;5417;42.686;23.244;2023-07-28T06:47:05;94339.72;;;25.63;nan
10732;BME280;5417;42.686;23.244;2023-07-28T06:49:32;94339.03;;;25.74;nan
10732;BME280;5417;42.686;23.244;2023-07-28T06:52:01;94348.81;;;25.81;nan
10732;BME280;5417;42.686;23.244;2023-07-28T06:54:27;94346.53;;;25.84;nan
10732;BME280;5417;42.686;23.244;2023-07-28T06:56:55;94342.91;;;25.97;nan
10732;BME280;5417;42.686;23.244;2023-07-28T06:59:22;94336.88;;;26.08;nan
10732;BME280;5417;42.686;23.244;2023-07-28T07:01:49;94343.38;;;26.12;nan
10732;BME280;5417;42.686;23.244;2023-07-28T07:04:16;94344.97;;;25.95;nan
10732;BME280;5417;42.686;23.244;2023-07-28T07:06:43;94338.56;;;26.02;nan
10732;BME280;5417;42.686;23.244;2023-07-28T07:09:11;94342.06;;;26.21;nan
10732;BME280;5417;42.686;23.244;2023-07-28T07:11:40;94347.31;;;26.28;nan
10732;BME280;5417;42.686;23.244;2023-07-28T07:14:07;94347.16;;;26.04;nan
10732;BME280;5417;42.686;23.244;2023-07-28T07:16:34;94325.16;;;26.09;nan
10732;BME280;5417;42.686;23.244;2023-07-28T07:19:01;94345.16;;;26.18;nan
10732;BME280;5417;42.686;23.244;2023-07-28T07:21:29;94346.66;;;26.51;nan
10732;BME280;5417;42.686;23.244;2023-07-28T07:23:56;94343.47;;;26.60;nan
10732;BME280;5417;42.686;23.244;2023-07-28T07:26:24;94351.28;;;26.62;nan
10732;BME280;5417;42.686;23.244;2023-07-28T07:28:51;94337.59;;;26.52;nan
10732;BME280;5417;42.686;23.244;2023-07-28T07:31:18;94344.22;;;26.67;nan
10732;BME280;5417;42.686;23.244;2023-07-28T07:33:45;94349.25;;;26.76;nan
10732;BME280;5417;42.686;23.244;2023-07-28T07:36:12;94356.34;;;26.82;nan
10732;BME280;5417;42.686;23.244;2023-07-28T07:38:40;94353.50;;;26.95;nan
10732;BME280;5417;42.686;23.244;2023-07-28T07:41:07;94349.41;;;26.62;nan
10732;BME280;5417;42.686;23.244;2023-07-28T07:43:37;94355.25;;;26.53;nan
10732;BME280;5417;42.686;23.244;2023-07-28T07:46:04;94358.38;;;26.68;nan
10732;BME280;5417;42.686;23.244;2023-07-28T07:48:31;94347.34;;;26.64;nan
10732;BME280;5417;42.686;23.244;2023-07-28T07:50:58;94344.28;;;26.61;nan
10732;BME280;5417;42.686;23.244;2023-07-28T07:53:25;94358.69;;;26.90;nan
10732;BME280;5417;42.686;23.244;2023-07-28T07:55:51;94340.94;;;26.95;nan
10732;BME280;5417;42.686;23.244;2023-07-28T07:58:18;94354.25;;;27.02;nan
10732;BME280;5417;42.686;23.244;2023-07-28T08:00:47;94353.41;;;27.31;nan
10732;BME280;5417;42.686;23.244;2023-07-28T08:03:14;94336.09;;;27.64;nan
10732;BME280;5417;42.686;23.244;2023-07-28T08:05:41;94354.69;;;27.82;nan
10732;BME280;5417;42.686;23.244;2023-07-28T08:08:08;94354.13;;;27.69;nan
10732;BME280;5417;42.686;23.244;2023-07-28T08:10:35;94338.09;;;27.50;nan
10732;BME280;5417;42.686;23.244;2023-07-28T08:13:02;94349.00;;;27.79;nan
10732;BME280;5417;42.686;23.244;2023-07-28T08:15:29;94336.00;;;27.52;nan
10732;BME280;5417;42.686;23.244;2023-07-28T08:17:58;94326.81;;;27.48;nan
10732;BME280;5417;42.686;23.244;2023-07-28T08:20:25;94340.88;;;27.44;nan
10732;BME280;5417;42.686;23.244;2023-07-28T08:22:52;94341.34;;;27.41;nan
10732;BME280;5417;42.686;23.244;2023-07-28T08:25:19;94333.94;;;27.54;nan
10732;BME280;5417;42.686;23.244;2023-07-28T08:27:45;94328.41;;;27.79;nan
10732;BME280;5417;42.686;23.244;2023-07-28T08:30:12;94342.13;;;28.06;nan
10732;BME280;5417;42.686;23.244;2023-07-28T08:32:40;94334.91;;;27.95;nan
10732;BME280;5417;42.686;23.244;2023-07-28T08:35:09;94337.59;;;28.07;nan
10732;BME280;5417;42.686;23.244;2023-07-28T08:37:36;94336.22;;;28.16;nan
10732;BME280;5417;42.686;23.244;2023-07-28T08:40:04;94338.41;;;28.19;nan
10732;BME280;5417;42.686;23.244;2023-07-28T08:42:37;94335.88;;;28.24;nan
10732;BME280;5417;42.686;23.244;2023-07-28T08:45:04;94334.09;;;28.41;nan
10732;BME280;5417;42.686;23.244;2023-07-28T08:47:32;94328.13;;;28.51;nan
10732;BME280;5417;42.686;23.244;2023-07-28T08:50:00;94333.41;;;28.34;nan
10732;BME280;5417;42.686;23.244;2023-07-28T08:52:28;94319.19;;;28.45;nan
10732;BME280;5417;42.686;23.244;2023-07-28T08:54:55;94331.75;;;28.45;nan
10732;BME280;5417;42.686;23.244;2023-07-28T08:57:22;94324.44;;;28.40;nan
10732;BME280;5417;42.686;23.244;2023-07-28T08:59:49;94309.53;;;28.21;nan
10732;BME280;5417;42.686;23.244;2023-07-28T09:02:17;94305.00;;;28.33;nan
10732;BME280;5417;42.686;23.244;2023-07-28T09:04:46;94306.63;;;28.34;nan
10732;BME280;5417;42.686;23.244;2023-07-28T09:07:14;94302.66;;;28.37;nan
10732;BME280;5417;42.686;23.244;2023-07-28T09:09:42;94297.91;;;28.15;nan
10732;BME280;5417;42.686;23.244;2023-07-28T09:12:09;94278.97;;;27.93;nan
10732;BME280;5417;42.686;23.244;2023-07-28T09:14:37;94299.78;;;28.15;nan
10732;BME280;5417;42.686;23.244;2023-07-28T09:17:09;94286.88;;;28.23;nan
10732;BME280;5417;42.686;23.244;2023-07-28T09:19:49;94284.06;;;28.30;nan
10732;BME280;5417;42.686;23.244;2023-07-28T09:22:17;94273.69;;;28.34;nan
10732;BME280;5417;42.686;23.244;2023-07-28T09:24:47;94274.78;;;27.97;nan
10732;BME280;5417;42.686;23.244;2023-07-28T09:27:25;94277.13;;;27.71;nan
10732;BME280;5417;42.686;23.244;2023-07-28T09:29:55;94268.41;;;27.63;nan
10732;BME280;5417;42.686;23.244;2023-07-28T09:32:29;94252.94;;;27.77;nan
10732;BME280;5417;42.686;23.244;2023-07-28T09:35:09;94261.16;;;27.99;nan
10732;BME280;5417;42.686;23.244;2023-07-28T09:37:37;94255.34;;;28.02;nan
10732;BME280;5417;42.686;23.244;2023-07-28T09:40:08;94241.38;;;28.00;nan
10732;BME280;5417;42.686;23.244;2023-07-28T09:42:37;94241.13;;;28.13;nan
10732;BME280;5417;42.686;23.244;2023-07-28T09:45:05;94243.09;;;28.18;nan
10732;BME280;5417;42.686;23.244;2023-07-28T09:47:34;94238.31;;;28.20;nan
10732;BME280;5417;42.686;23.244;2023-07-28T09:50:03;94223.44;;;28.24;nan
10732;BME280;5417;42.686;23.244;2023-07-28T09:52:33;94235.19;;;28.23;nan
10732;BME280;5417;42.686;23.244;2023-07-28T09:55:05;94237.03;;;28.22;nan
10732;BME280;5417;42.686;23.244;2023-07-28T09:57:36;94215.53;;;28.06;nan
10732;BME280;5417;42.686;23.244;2023-07-28T10:00:07;94239.38;;;28.31;nan
10732;BME280;5417;42.686;23.244;2023-07-28T10:02:36;94230.28;;;28.32;nan
10732;BME280;5417;42.686;23.244;2023-07-28T10:05:05;94227.59;;;28.32;nan
10732;BME280;5417;42.686;23.244;2023-07-28T10:07:33;94234.34;;;28.34;nan
10732;BME280;5417;42.686;23.244;2023-07-28T10:10:01;94223.97;;;28.38;nan
10732;BME280;5417;42.686;23.244;2023-07-28T10:12:39;94217.81;;;28.37;nan
10732;BME280;5417;42.686;23.244;2023-07-28T10:15:08;94231.16;;;28.49;nan
10732;BME280;5417;42.686;23.244;2023-07-28T10:17:38;94223.72;;;28.39;nan
10732;BME280;5417;42.686;23.244;2023-07-28T10:20:07;94214.22;;;28.32;nan
10732;BME280;5417;42.686;23.244;2023-07-28T10:22:53;94218.66;;;28.26;nan
10732;BME280;5417;42.686;23.244;2023-07-28T10:25:22;94217.03;;;28.25;nan
10732;BME280;5417;42.686;23.244;2023-07-28T10:27:53;94209.38;;;28.05;nan
10732;BME280;5417;42.686;23.244;2023-07-28T10:30:20;94206.47;;;28.07;nan
10732;BME280;5417;42.686;23.244;2023-07-28T10:32:48;94206.00;;;28.10;nan
10732;BME280;5417;42.686;23.244;2023-07-28T10:35:23;94196.69;;;28.12;nan
10732;BME280;5417;42.686;23.244;2023-07-28T10:37:53;94187.34;;;28.26;nan
10732;BME280;5417;42.686;23.244;2023-07-28T10:40:23;94201.34;;;28.45;nan
10732;BME280;5417;42.686;23.244;2023-07-28T10:42:51;94197.59;;;28.30;nan
10732;BME280;5417;42.686;23.244;2023-07-28T10:45:19;94203.22;;;28.45;nan
10732;BME280;5417;42.686;23.244;2023-07-28T10:47:46;94197.97;;;28.50;nan
10732;BME280;5417;42.686;23.244;2023-07-28T10:50:14;94202.84;;;28.24;nan
10732;BME280;5417;42.686;23.244;2023-07-28T10:52:42;94198.91;;;28.15;nan
10732;BME280;5417;42.686;23.244;2023-07-28T10:55:13;94190.41;;;28.07;nan
10732;BME280;5417;42.686;23.244;2023-07-28T10:57:41;94185.50;;;28.15;nan
10732;BME280;5417;42.686;23.244;2023-07-28T11:00:10;94180.72;;;28.17;nan
10732;BME280;5417;42.686;23.244;2023-07-28T11:02:41;94173.25;;;28.31;nan
10732;BME280;5417;42.686;23.244;2023-07-28T11:05:13;94172.91;;;28.27;nan
10732;BME280;5417;42.686;23.244;2023-07-28T11:07:42;94165.00;;;28.21;nan
10732;BME280;5417;42.686;23.244;2023-07-28T11:10:10;94166.53;;;28.17;nan
10732;BME280;5417;42.686;23.244;2023-07-28T11:12:42;94155.19;;;27.98;nan
10732;BME280;5417;42.686;23.244;2023-07-28T11:15:12;94146.78;;;27.66;nan
10732;BME280;5417;42.686;23.244;2023-07-28T11:17:42;94161.28;;;27.82;nan
10732;BME280;5417;42.686;23.244;2023-07-28T11:20:21;94148.72;;;27.82;nan
10732;BME280;5417;42.686;23.244;2023-07-28T11:22:52;94156.00;;;27.98;nan
10732;BME280;5417;42.686;23.244;2023-07-28T11:25:20;94154.00;;;28.06;nan
10732;BME280;5417;42.686;23.244;2023-07-28T11:27:48;94149.63;;;28.28;nan
10732;BME280;5417;42.686;23.244;2023-07-28T11:30:16;94115.66;;;28.28;nan
10732;BME280;5417;42.686;23.244;2023-07-28T11:32:46;94135.41;;;28.56;nan
10732;BME280;5417;42.686;23.244;2023-07-28T11:35:15;94129.44;;;28.66;nan
10732;BME280;5417;42.686;23.244;2023-07-28T11:37:45;94134.34;;;28.57;nan
10732;BME280;5417;42.686;23.244;2023-07-28T11:40:15;94134.28;;;28.69;nan
10732;BME280;5417;42.686;23.244;2023-07-28T11:42:46;94126.75;;;28.82;nan
10732;BME280;5417;42.686;23.244;2023-07-28T11:45:15;94135.69;;;28.88;nan
10732;BME280;5417;42.686;23.244;2023-07-28T11:47:54;94139.97;;;28.72;nan
10732;BME280;5417;42.686;23.244;2023-07-28T11:50:25;94133.97;;;28.65;nan
10732;BME280;5417;42.686;23.244;2023-07-28T11:52:53;94124.91;;;28.38;nan
10732;BME280;5417;42.686;23.244;2023-07-28T11:55:20;94135.38;;;28.39;nan
10732;BME280;5417;42.686;23.244;2023-07-28T11:57:48;94126.28;;;28.40;nan
10732;BME280;5417;42.686;23.244;2023-07-28T12:00:15;94124.75;;;28.27;nan
10732;BME280;5417;42.686;23.244;2023-07-28T12:02:43;94131.47;;;28.30;nan
10732;BME280;5417;42.686;23.244;2023-07-28T12:05:16;94127.91;;;28.41;nan
10732;BME280;5417;42.686;23.244;2023-07-28T12:07:47;94121.13;;;28.50;nan
10732;BME280;5417;42.686;23.244;2023-07-28T12:10:15;94108.38;;;28.41;nan
10732;BME280;5417;42.686;23.244;2023-07-28T12:12:45;94111.44;;;28.33;nan
10732;BME280;5417;42.686;23.244;2023-07-28T12:15:22;94106.84;;;28.16;nan
10732;BME280;5417;42.686;23.244;2023-07-28T12:18:03;94100.03;;;27.97;nan
10732;BME280;5417;42.686;23.244;2023-07-28T12:20:35;94112.66;;;27.85;nan
10732;BME280;5417;42.686;23.244;2023-07-28T12:23:02;94095.41;;;27.92;nan
10732;BME280;5417;42.686;23.244;2023-07-28T12:25:29;94109.06;;;28.08;nan
10732;BME280;5417;42.686;23.244;2023-07-28T12:27:59;94094.28;;;28.17;nan
10732;BME280;5417;42.686;23.244;2023-07-28T12:30:26;94069.63;;;28.15;nan
10732;BME280;5417;42.686;23.244;2023-07-28T12:32:53;94090.75;;;28.28;nan
10732;BME280;5417;42.686;23.244;2023-07-28T12:35:21;94088.09;;;28.45;nan
10732;BME280;5417;42.686;23.244;2023-07-28T12:37:51;94086.88;;;28.36;nan
10732;BME280;5417;42.686;23.244;2023-07-28T12:40:18;94092.22;;;28.36;nan
10732;BME280;5417;42.686;23.244;2023-07-28T12:42:46;94083.28;;;28.47;nan
10732;BME280;5417;42.686;23.244;2023-07-28T12:45:13;94080.28;;;28.43;nan
10732;BME280;5417;42.686;23.244;2023-07-28T12:47:43;94082.00;;;28.49;nan
10732;BME280;5417;42.686;23.244;2023-07-28T12:50:10;94076.97;;;28.53;nan
10732;BME280;5417;42.686;23.244;2023-07-28T12:52:37;94083.38;;;28.52;nan
10732;BME280;5417;42.686;23.244;2023-07-28T12:55:06;94076.16;;;28.36;nan
10732;BME280;5417;42.686;23.244;2023-07-28T12:57:33;94073.16;;;28.49;nan
10732;BME280;5417;42.686;23.244;2023-07-28T13:00:00;94078.59;;;28.54;nan
10732;BME280;5417;42.686;23.244;2023-07-28T13:02:32;94061.22;;;28.40;nan
10732;BME280;5417;42.686;23.244;2023-07-28T13:04:59;94063.81;;;28.35;nan
10732;BME280;5417;42.686;23.244;2023-07-28T13:07:25;94059.13;;;28.42;nan
10732;BME280;5417;42.686;23.244;2023-07-28T13:09:51;94067.31;;;28.35;nan
10732;BME280;5417;42.686;23.244;2023-07-28T13:12:20;94046.09;;;28.17;nan
10732;BME280;5417;42.686;23.244;2023-07-28T13:14:46;94056.75;;;28.28;nan
10732;BME280;5417;42.686;23.244;2023-07-28T13:17:13;94059.75;;;28.32;nan
10732;BME280;5417;42.686;23.244;2023-07-28T13:19:42;94051.31;;;28.23;nan
10732;BME280;5417;42.686;23.244;2023-07-28T13:22:09;94033.47;;;28.29;nan
10732;BME280;5417;42.686;23.244;2023-07-28T13:24:36;94046.22;;;28.39;nan
10732;BME280;5417;42.686;23.244;2023-07-28T13:27:04;94034.53;;;28.28;nan
10732;BME280;5417;42.686;23.244;2023-07-28T13:29:32;94035.03;;;28.25;nan